createdAt,value
2023-01-19T00:01:32.662Z,69.62
2023-01-19T00:04:00.122Z,69.67
2023-01-19T00:06:27.961Z,69.74
2023-01-19T00:08:55.490Z,70.51
2023-01-19T00:11:23.055Z,70.30
2023-01-19T00:13:51.114Z,70.63
2023-01-19T00:16:22.804Z,70.22
2023-01-19T00:18:51.962Z,70.31
2023-01-19T00:21:21.434Z,70.45
2023-01-19T00:23:51.119Z,70.83
2023-01-19T00:26:19.142Z,70.33
2023-01-19T00:28:47.134Z,70.76
2023-01-19T00:31:14.686Z,71.42
2023-01-19T00:33:43.592Z,70.18
2023-01-19T00:36:11.462Z,70.48
2023-01-19T00:38:39.633Z,70.48
2023-01-19T00:41:07.345Z,71.15
2023-01-19T00:43:34.051Z,71.13
2023-01-19T00:46:01.751Z,71.29
2023-01-19T00:48:29.450Z,71.10
2023-01-19T00:50:59.908Z,71.56
2023-01-19T00:53:29.097Z,71.24
2023-01-19T00:55:56.581Z,70.97
2023-01-19T00:58:24.080Z,71.11
2023-01-19T01:00:54.711Z,71.03
2023-01-19T01:03:28.080Z,70.77
2023-01-19T01:05:55.764Z,70.51
2023-01-19T01:08:24.775Z,69.77
2023-01-19T01:10:52.495Z,69.90
2023-01-19T01:13:22.332Z,70.49
2023-01-19T01:15:50.761Z,71.53
2023-01-19T01:18:18.310Z,71.47
2023-01-19T01:20:45.823Z,71.12
2023-01-19T01:23:14.057Z,70.97
2023-01-19T01:25:43.410Z,71.34
2023-01-19T01:28:11.181Z,70.82
2023-01-19T01:30:40.897Z,70.22
2023-01-19T01:33:08.658Z,70.39
2023-01-19T01:35:36.354Z,70.54
2023-01-19T01:38:04.349Z,70.48
2023-01-19T01:40:31.934Z,70.09
2023-01-19T01:43:02.636Z,70.64
2023-01-19T01:45:33.835Z,70.64
2023-01-19T01:48:09.486Z,71.01
2023-01-19T01:51:02.657Z,69.63
2023-01-19T01:53:31.688Z,70.19
2023-01-19T01:56:00.918Z,70.74
2023-01-19T01:58:29.846Z,70.51
2023-01-19T02:01:15.086Z,71.14
2023-01-19T02:03:42.729Z,71.33
2023-01-19T02:06:11.207Z,70.81
2023-01-19T02:09:02.465Z,70.43
2023-01-19T02:11:49.108Z,69.65
2023-01-19T02:14:18.898Z,71.26
2023-01-19T02:16:47.095Z,71.26
2023-01-19T02:19:19.200Z,71.35
2023-01-19T02:21:53.940Z,70.77
2023-01-19T02:24:23.513Z,70.89
2023-01-19T02:26:52.091Z,71.79
2023-01-19T02:29:21.834Z,71.42
2023-01-19T02:31:49.348Z,70.93
2023-01-19T02:34:19.766Z,69.62
2023-01-19T02:36:53.337Z,70.22
2023-01-19T02:39:29.002Z,69.25
2023-01-19T02:42:02.668Z,69.36
2023-01-19T02:44:31.518Z,70.44
2023-01-19T02:46:59.050Z,70.06
2023-01-19T02:49:29.624Z,70.33
2023-01-19T02:51:57.333Z,70.73
2023-01-19T02:54:48.454Z,70.37
2023-01-19T02:57:32.468Z,70.28
2023-01-19T03:00:13.475Z,70.12
2023-01-19T03:02:53.378Z,70.99
2023-01-19T03:05:34.024Z,70.43
2023-01-19T03:08:09.169Z,69.83
2023-01-19T03:10:47.049Z,69.85
2023-01-19T03:13:19.959Z,69.87
2023-01-19T03:15:51.038Z,70.60
2023-01-19T03:18:23.356Z,70.02
2023-01-19T03:20:54.122Z,70.27
2023-01-19T03:23:25.932Z,69.95
2023-01-19T03:25:57.810Z,70.59
2023-01-19T03:28:28.230Z,69.81
2023-01-19T03:30:59.905Z,69.91
2023-01-19T03:33:30.509Z,69.74
2023-01-19T03:36:03.489Z,69.76
2023-01-19T03:38:36.226Z,69.85
2023-01-19T03:41:10.638Z,70.33
2023-01-19T03:43:39.929Z,71.37
2023-01-19T03:46:09.128Z,70.83
2023-01-19T03:48:36.975Z,70.73
2023-01-19T03:51:05.658Z,70.48
2023-01-19T03:53:33.398Z,70.38
2023-01-19T03:56:00.936Z,70.32
2023-01-19T03:58:30.018Z,70.81
2023-01-19T04:00:57.984Z,71.14
2023-01-19T04:03:25.530Z,70.56
2023-01-19T04:05:53.088Z,70.52
2023-01-19T04:08:20.592Z,71.27
2023-01-19T04:10:48.082Z,71.72
2023-01-19T04:13:15.562Z,71.65
2023-01-19T04:15:44.420Z,71.86
2023-01-19T04:18:11.951Z,72.29
2023-01-19T04:20:39.459Z,73.26
2023-01-19T04:23:07.231Z,73.39
2023-01-19T04:25:34.720Z,73.39
2023-01-19T04:28:02.183Z,73.37
2023-01-19T04:30:29.656Z,73.16
2023-01-19T04:33:00.161Z,74.49
2023-01-19T04:35:28.542Z,74.26
2023-01-19T04:37:56.058Z,75.56
2023-01-19T04:40:23.725Z,75.67
2023-01-19T04:42:51.222Z,76.57
2023-01-19T04:45:18.937Z,77.31
2023-01-19T04:47:46.390Z,77.27
2023-01-19T04:50:15.187Z,78.89
2023-01-19T04:52:42.663Z,79.38
2023-01-19T04:55:11.210Z,79.27
2023-01-19T04:57:38.848Z,79.06
2023-01-19T05:00:07.659Z,80.40
2023-01-19T05:02:35.687Z,80.84
2023-01-19T05:05:03.723Z,81.06
2023-01-19T05:07:32.670Z,81.01
2023-01-19T05:10:00.131Z,80.87
2023-01-19T05:12:27.766Z,81.38
2023-01-19T05:14:55.234Z,81.36
2023-01-19T05:17:22.708Z,81.30
2023-01-19T05:19:50.417Z,80.99
2023-01-19T05:22:18.137Z,80.91
2023-01-19T05:24:46.961Z,80.55
2023-01-19T05:27:14.418Z,80.11
2023-01-19T05:29:42.033Z,80.31
2023-01-19T05:32:09.504Z,80.20
2023-01-19T05:34:37.105Z,80.72
2023-01-19T05:37:04.599Z,80.48
2023-01-19T05:39:32.138Z,80.86
2023-01-19T05:42:01.012Z,80.54
2023-01-19T05:44:28.485Z,81.32
2023-01-19T05:46:56.432Z,80.52
2023-01-19T05:49:23.943Z,80.05
2023-01-19T05:51:51.404Z,80.11
2023-01-19T05:54:18.902Z,80.10
2023-01-19T05:56:46.560Z,80.63
2023-01-19T05:59:17.384Z,81.36
2023-01-19T06:01:45.095Z,80.87
2023-01-19T06:04:12.600Z,81.17
2023-01-19T06:06:40.324Z,81.30
2023-01-19T06:09:08.243Z,81.75
2023-01-19T06:11:35.696Z,82.53
2023-01-19T06:14:03.352Z,82.34
2023-01-19T06:16:32.308Z,83.47
2023-01-19T06:19:00.243Z,83.35
2023-01-19T06:21:27.726Z,82.49
2023-01-19T06:23:55.209Z,82.01
2023-01-19T06:26:22.713Z,81.60
2023-01-19T06:28:53.287Z,80.56
2023-01-19T06:31:20.857Z,80.14
2023-01-19T06:33:50.216Z,79.92
2023-01-19T06:36:17.683Z,80.80
2023-01-19T06:38:45.183Z,79.73
2023-01-19T06:41:12.727Z,79.85
2023-01-19T06:43:40.193Z,79.71
2023-01-19T06:46:07.818Z,79.73
2023-01-19T06:48:35.295Z,79.97
2023-01-19T06:51:05.886Z,80.25
2023-01-19T06:53:33.946Z,81.07
2023-01-19T06:56:03.955Z,80.05
2023-01-19T06:58:34.663Z,79.33
2023-01-19T07:01:03.175Z,79.62
2023-01-19T07:03:31.328Z,78.90
2023-01-19T07:06:02.202Z,78.77
2023-01-19T07:08:31.197Z,77.89
2023-01-19T07:11:23.612Z,78.57
2023-01-19T07:13:51.444Z,78.18
2023-01-19T07:16:19.551Z,77.97
2023-01-19T07:18:49.800Z,78.38
2023-01-19T07:21:17.559Z,78.06
2023-01-19T07:23:49.172Z,79.15
2023-01-19T07:26:18.557Z,78.94
2023-01-19T07:28:47.407Z,78.86
2023-01-19T07:31:16.433Z,79.84
2023-01-19T07:33:44.065Z,80.18
2023-01-19T07:36:12.110Z,79.07
2023-01-19T07:38:39.636Z,79.29
2023-01-19T07:41:10.339Z,79.21
2023-01-19T07:43:37.884Z,79.44
2023-01-19T07:46:06.711Z,80.09
2023-01-19T07:48:34.578Z,79.85
2023-01-19T07:51:05.217Z,79.80
2023-01-19T07:53:32.870Z,79.66
2023-01-19T07:56:00.568Z,79.27
2023-01-19T07:58:30.397Z,79.17
2023-01-19T08:00:58.079Z,80.05
2023-01-19T08:03:25.696Z,79.07
2023-01-19T08:05:54.282Z,80.27
2023-01-19T08:08:21.962Z,79.47
2023-01-19T08:10:51.343Z,80.44
2023-01-19T08:13:18.999Z,79.91
2023-01-19T08:15:50.575Z,80.53
2023-01-19T08:18:18.469Z,80.98
2023-01-19T08:20:46.915Z,81.21
2023-01-19T08:23:14.394Z,80.47
2023-01-19T08:25:45.131Z,79.95
2023-01-19T08:28:14.590Z,80.37
2023-01-19T08:30:43.836Z,79.92
2023-01-19T08:33:12.900Z,79.43
2023-01-19T08:35:41.868Z,78.37
2023-01-19T08:38:10.835Z,78.94
2023-01-19T08:40:40.163Z,78.37
2023-01-19T08:43:09.546Z,78.46
2023-01-19T08:45:37.927Z,79.51
2023-01-19T08:48:06.243Z,78.55
2023-01-19T08:50:35.541Z,80.40
2023-01-19T08:53:06.535Z,80.48
2023-01-19T08:55:35.111Z,80.50
2023-01-19T08:58:04.121Z,79.24
2023-01-19T09:00:33.597Z,80.10
2023-01-19T09:03:03.947Z,79.51
2023-01-19T09:05:35.461Z,79.34
2023-01-19T09:08:05.119Z,80.50
2023-01-19T09:10:35.837Z,80.15
2023-01-19T09:13:04.196Z,80.69
2023-01-19T09:15:33.811Z,80.27
2023-01-19T09:18:02.281Z,80.52
2023-01-19T09:20:30.976Z,79.98
2023-01-19T09:22:59.305Z,80.46
2023-01-19T09:25:28.605Z,80.49
2023-01-19T09:27:56.141Z,82.17
2023-01-19T09:30:23.674Z,82.20
2023-01-19T09:32:51.150Z,81.62
2023-01-19T09:35:18.650Z,82.32
2023-01-19T09:37:47.235Z,82.06
2023-01-19T09:40:17.214Z,81.17
2023-01-19T09:42:51.576Z,81.05
2023-01-19T09:45:23.868Z,81.06
2023-01-19T09:47:53.130Z,79.97
2023-01-19T09:50:28.364Z,80.95
2023-01-19T09:53:01.305Z,82.00
2023-01-19T09:55:29.405Z,81.05
2023-01-19T09:57:58.735Z,80.72
2023-01-19T10:00:29.656Z,80.29
2023-01-19T10:03:04.019Z,80.18
2023-01-19T10:05:38.202Z,80.02
2023-01-19T10:08:22.866Z,79.80
2023-01-19T10:10:54.938Z,79.55
2023-01-19T10:13:38.909Z,80.46
2023-01-19T10:16:20.090Z,80.07
2023-01-19T10:18:51.485Z,80.18
2023-01-19T10:21:21.975Z,79.60
2023-01-19T10:23:54.549Z,80.02
2023-01-19T10:26:26.327Z,78.92
2023-01-19T10:29:02.867Z,79.25
2023-01-19T10:31:30.570Z,79.48
2023-01-19T10:33:58.895Z,79.55
2023-01-19T10:36:30.383Z,79.59
2023-01-19T10:38:59.049Z,80.04
2023-01-19T10:41:32.541Z,79.82
2023-01-19T10:44:02.880Z,79.51
2023-01-19T10:46:38.269Z,79.78
2023-01-19T10:49:07.759Z,80.53
2023-01-19T10:51:45.318Z,79.77
2023-01-19T10:54:14.246Z,79.98
2023-01-19T10:56:42.107Z,80.41
2023-01-19T10:59:33.873Z,80.15
2023-01-19T11:02:17.440Z,79.44
2023-01-19T11:04:48.997Z,78.16
2023-01-19T11:07:21.415Z,78.38
2023-01-19T11:09:49.849Z,78.12
2023-01-19T11:12:21.922Z,78.15
2023-01-19T11:14:54.117Z,78.83
2023-01-19T11:17:25.043Z,78.09
2023-01-19T11:20:01.112Z,78.34
2023-01-19T11:22:31.319Z,78.66
2023-01-19T11:25:01.461Z,78.08
2023-01-19T11:27:30.953Z,78.02
2023-01-19T11:30:09.662Z,78.49
2023-01-19T11:32:37.869Z,78.80
2023-01-19T11:35:33.005Z,79.39
2023-01-19T11:38:08.362Z,78.90
2023-01-19T11:40:36.608Z,77.71
2023-01-19T11:43:04.234Z,77.76
2023-01-19T11:45:34.983Z,77.59
2023-01-19T11:48:05.894Z,77.48
2023-01-19T11:50:39.834Z,77.14
2023-01-19T11:53:14.240Z,76.37
2023-01-19T11:55:50.013Z,75.87
2023-01-19T11:58:19.168Z,76.11
2023-01-19T12:00:52.434Z,75.99
2023-01-19T12:03:24.800Z,76.20
2023-01-19T12:05:56.325Z,75.92
2023-01-19T12:08:26.873Z,75.64
2023-01-19T12:10:57.843Z,75.37
2023-01-19T12:13:27.616Z,75.15
2023-01-19T12:16:01.921Z,74.96
2023-01-19T12:18:33.488Z,75.59
2023-01-19T12:21:03.921Z,75.62
2023-01-19T12:23:44.851Z,75.82
2023-01-19T12:26:28.220Z,74.74
2023-01-19T12:29:00.963Z,74.93
2023-01-19T12:31:30.012Z,75.33
2023-01-19T12:34:32.057Z,75.70
2023-01-19T12:37:04.598Z,75.68
2023-01-19T12:39:33.178Z,75.41
2023-01-19T12:42:13.543Z,75.15
2023-01-19T12:44:42.580Z,76.14
2023-01-19T12:47:24.127Z,76.82
2023-01-19T12:49:54.942Z,76.50
2023-01-19T12:52:30.691Z,75.48
2023-01-19T12:55:15.235Z,76.63
2023-01-19T12:57:50.138Z,76.88
2023-01-19T13:00:39.515Z,78.84
2023-01-19T13:03:40.480Z,77.26
2023-01-19T13:06:09.328Z,77.59
2023-01-19T13:08:58.638Z,77.48
2023-01-19T13:11:29.357Z,77.60
2023-01-19T13:14:34.769Z,76.82
2023-01-19T13:17:27.873Z,78.00
2023-01-19T13:20:24.029Z,78.34
2023-01-19T13:23:21.315Z,77.46
2023-01-19T13:25:54.413Z,76.93
2023-01-19T13:28:31.279Z,76.49
2023-01-19T13:31:02.503Z,75.34
2023-01-19T13:33:40.653Z,76.20
2023-01-19T13:36:19.596Z,75.36
2023-01-19T13:38:48.478Z,74.47
2023-01-19T13:41:19.869Z,75.50
2023-01-19T13:43:49.320Z,75.31
2023-01-19T13:46:18.961Z,74.65
2023-01-19T13:48:56.169Z,74.92
2023-01-19T13:51:24.011Z,74.88
2023-01-19T13:53:55.502Z,74.68
2023-01-19T13:56:27.691Z,74.72
2023-01-19T13:59:06.900Z,74.66
2023-01-19T14:01:34.611Z,74.71
2023-01-19T14:04:02.264Z,74.06
2023-01-19T14:06:36.108Z,73.79
2023-01-19T14:09:08.172Z,74.23
2023-01-19T14:11:37.150Z,74.13
2023-01-19T14:14:04.737Z,74.07
2023-01-19T14:16:32.265Z,74.54
2023-01-19T14:19:01.151Z,74.21
2023-01-19T14:21:39.163Z,75.02
2023-01-19T14:24:08.824Z,73.83
2023-01-19T14:26:48.721Z,73.35
2023-01-19T14:29:19.549Z,73.63
2023-01-19T14:31:49.009Z,73.36
2023-01-19T14:34:38.618Z,73.23
2023-01-19T14:37:14.148Z,72.26
2023-01-19T14:39:47.032Z,72.90
2023-01-19T14:42:21.589Z,72.81
2023-01-19T14:44:52.175Z,72.39
2023-01-19T14:47:34.029Z,72.47
2023-01-19T14:50:07.421Z,72.34
2023-01-19T14:52:39.293Z,71.43
2023-01-19T14:55:09.965Z,71.60
2023-01-19T14:57:39.049Z,71.90
2023-01-19T15:00:17.362Z,72.38
2023-01-19T15:02:45.424Z,71.92
2023-01-19T15:05:13.330Z,72.27
2023-01-19T15:07:44.148Z,72.09
2023-01-19T15:10:18.119Z,71.93
2023-01-19T15:12:47.418Z,71.97
2023-01-19T15:15:22.547Z,72.18
2023-01-19T15:17:50.792Z,71.91
2023-01-19T15:20:19.625Z,71.86
2023-01-19T15:22:47.795Z,71.53
2023-01-19T15:25:16.666Z,71.76
2023-01-19T15:27:45.269Z,71.79
2023-01-19T15:30:20.505Z,71.41
2023-01-19T15:32:48.973Z,71.67
2023-01-19T15:35:18.012Z,71.57
2023-01-19T15:37:45.875Z,71.59
2023-01-19T15:40:14.508Z,71.48
2023-01-19T15:42:42.472Z,71.60
2023-01-19T15:45:32.160Z,71.68
2023-01-19T15:47:59.875Z,71.30
2023-01-19T15:50:27.808Z,71.06
2023-01-19T15:52:55.295Z,71.24
2023-01-19T15:55:23.125Z,71.27
2023-01-19T15:57:50.669Z,71.05
2023-01-19T16:00:20.216Z,70.81
2023-01-19T16:02:50.070Z,71.23
2023-01-19T16:05:17.672Z,71.45
2023-01-19T16:07:45.409Z,70.90
2023-01-19T16:10:13.453Z,70.70
2023-01-19T16:12:40.995Z,70.71
2023-01-19T16:15:09.586Z,70.80
2023-01-19T16:17:38.625Z,70.49
2023-01-19T16:20:07.313Z,70.61
2023-01-19T16:22:35.054Z,70.27
2023-01-19T16:25:02.568Z,70.88
2023-01-19T16:27:30.521Z,70.37
2023-01-19T16:29:59.795Z,70.90
2023-01-19T16:32:27.305Z,70.43
2023-01-19T16:34:56.231Z,71.11
2023-01-19T16:37:23.725Z,71.33
2023-01-19T16:39:51.528Z,70.47
2023-01-19T16:42:19.312Z,70.33
2023-01-19T16:44:46.839Z,70.31
2023-01-19T16:47:14.335Z,70.20
2023-01-19T16:49:41.806Z,70.72
2023-01-19T16:52:10.682Z,70.93
2023-01-19T16:54:39.467Z,70.58
2023-01-19T16:57:06.997Z,70.83
2023-01-19T16:59:35.106Z,70.98
2023-01-19T17:02:03.125Z,70.94
2023-01-19T17:04:30.688Z,70.86
2023-01-19T17:06:58.553Z,70.79
2023-01-19T17:09:27.380Z,71.36
2023-01-19T17:11:54.897Z,70.71
2023-01-19T17:14:22.529Z,71.62
2023-01-19T17:16:50.778Z,71.74
2023-01-19T17:19:20.440Z,72.10
2023-01-19T17:21:49.544Z,70.94
2023-01-19T17:24:17.902Z,71.53
2023-01-19T17:26:48.575Z,70.79
2023-01-19T17:29:16.750Z,71.15
2023-01-19T17:31:45.818Z,70.89
2023-01-19T17:34:13.450Z,70.68
2023-01-19T17:36:40.971Z,70.33
2023-01-19T17:39:14.439Z,70.06
2023-01-19T17:41:42.018Z,70.04
2023-01-19T17:44:11.514Z,70.25
2023-01-19T17:46:39.743Z,70.03
2023-01-19T17:49:08.659Z,70.27
2023-01-19T17:51:36.409Z,70.52
2023-01-19T17:54:04.752Z,70.80
2023-01-19T17:56:36.740Z,70.37
2023-01-19T17:59:07.814Z,70.30
2023-01-19T18:01:39.746Z,69.90
2023-01-19T18:04:08.375Z,70.27
2023-01-19T18:06:35.921Z,70.12
2023-01-19T18:09:04.835Z,70.11
2023-01-19T18:11:32.334Z,70.22
2023-01-19T18:14:00.669Z,69.71
2023-01-19T18:16:29.958Z,70.57
2023-01-19T18:18:59.202Z,71.09
2023-01-19T18:21:28.706Z,70.75
2023-01-19T18:24:01.426Z,70.94
2023-01-19T18:26:29.654Z,70.69
2023-01-19T18:28:57.963Z,70.12
2023-01-19T18:31:26.868Z,70.41
2023-01-19T18:33:54.821Z,70.04
2023-01-19T18:36:23.854Z,70.24
2023-01-19T18:38:51.595Z,69.42
2023-01-19T18:41:20.853Z,69.94
2023-01-19T18:43:49.069Z,70.10
2023-01-19T18:46:17.338Z,69.79
2023-01-19T18:48:44.934Z,69.83
2023-01-19T18:51:14.856Z,69.87
2023-01-19T18:53:43.966Z,69.84
2023-01-19T18:56:13.490Z,70.08
2023-01-19T18:58:41.275Z,70.05
2023-01-19T19:01:20.093Z,69.78
2023-01-19T19:03:47.680Z,70.46
2023-01-19T19:06:16.685Z,71.18
2023-01-19T19:08:45.507Z,70.59
2023-01-19T19:11:14.223Z,70.57
2023-01-19T19:13:41.987Z,71.27
2023-01-19T19:16:11.535Z,71.11
2023-01-19T19:18:39.917Z,70.70
2023-01-19T19:21:08.474Z,70.99
2023-01-19T19:23:36.619Z,71.19
2023-01-19T19:26:07.290Z,70.60
2023-01-19T19:28:36.471Z,70.81
2023-01-19T19:31:08.333Z,70.08
2023-01-19T19:33:36.390Z,70.46
2023-01-19T19:36:04.578Z,70.95
2023-01-19T19:38:32.487Z,70.14
2023-01-19T19:41:05.295Z,70.58
2023-01-19T19:43:34.236Z,70.27
2023-01-19T19:46:03.233Z,70.55
2023-01-19T19:48:31.039Z,71.04
2023-01-19T19:51:17.087Z,71.32
2023-01-19T19:53:45.496Z,71.30
2023-01-19T19:56:14.228Z,71.06
2023-01-19T19:58:43.799Z,71.04
2023-01-19T20:01:12.374Z,70.79
2023-01-19T20:03:40.408Z,71.20
2023-01-19T20:06:09.891Z,70.88
2023-01-19T20:08:37.686Z,70.69
2023-01-19T20:11:07.377Z,70.31
2023-01-19T20:13:35.548Z,70.83
2023-01-19T20:16:05.985Z,70.54
2023-01-19T20:18:34.170Z,71.08
2023-01-19T20:21:01.739Z,71.02
2023-01-19T20:23:29.274Z,70.38
2023-01-19T20:25:56.755Z,70.56
2023-01-19T20:28:24.250Z,70.46
2023-01-19T20:30:51.925Z,70.72
2023-01-19T20:33:20.965Z,70.07
2023-01-19T20:35:48.444Z,70.64
2023-01-19T20:38:15.950Z,70.71
2023-01-19T20:40:43.389Z,70.35
2023-01-19T20:43:10.867Z,70.25
2023-01-19T20:45:38.353Z,69.98
2023-01-19T20:48:06.210Z,69.48
2023-01-19T20:50:35.237Z,69.66
2023-01-19T20:53:02.734Z,69.94
2023-01-19T20:55:33.350Z,70.18
2023-01-19T20:58:01.362Z,69.80
2023-01-19T21:00:29.125Z,70.13
2023-01-19T21:02:56.978Z,69.96
2023-01-19T21:05:25.226Z,69.92
2023-01-19T21:07:54.270Z,69.18
2023-01-19T21:10:22.880Z,69.61
2023-01-19T21:12:50.380Z,70.25
2023-01-19T21:15:18.581Z,69.83
2023-01-19T21:17:46.139Z,69.78
2023-01-19T21:20:14.198Z,69.78
2023-01-19T21:22:41.663Z,69.53
2023-01-19T21:25:11.473Z,70.40
2023-01-19T21:27:39.141Z,70.18
2023-01-19T21:30:07.702Z,70.13
2023-01-19T21:32:36.341Z,70.30
2023-01-19T21:35:03.999Z,69.91
2023-01-19T21:37:31.670Z,70.14
2023-01-19T21:39:59.148Z,69.81
2023-01-19T21:42:28.003Z,69.47
2023-01-19T21:44:55.493Z,69.75
2023-01-19T21:47:22.980Z,69.75
2023-01-19T21:49:50.460Z,69.09
2023-01-19T21:52:17.941Z,69.55
2023-01-19T21:54:45.391Z,69.75
2023-01-19T21:57:15.042Z,69.37
2023-01-19T21:59:43.880Z,69.36
2023-01-19T22:02:12.510Z,69.22
2023-01-19T22:04:40.551Z,68.97
2023-01-19T22:07:08.159Z,69.34
2023-01-19T22:09:35.863Z,69.09
2023-01-19T22:12:03.614Z,69.23
2023-01-19T22:14:31.090Z,68.85
2023-01-19T22:16:59.945Z,69.09
2023-01-19T22:19:27.743Z,69.06
2023-01-19T22:21:55.288Z,69.67
2023-01-19T22:24:22.755Z,69.38
2023-01-19T22:26:50.287Z,68.98
2023-01-19T22:29:17.783Z,68.97
2023-01-19T22:31:45.741Z,69.03
2023-01-19T22:34:17.132Z,69.32
2023-01-19T22:36:44.637Z,68.69
2023-01-19T22:39:13.465Z,68.89
2023-01-19T22:41:42.317Z,68.88
2023-01-19T22:44:12.273Z,68.54
2023-01-19T22:46:40.076Z,68.95
2023-01-19T22:49:09.001Z,68.41
2023-01-19T22:51:37.841Z,68.57
2023-01-19T22:54:05.720Z,68.95
2023-01-19T22:56:34.768Z,68.72
2023-01-19T22:59:03.058Z,68.62
2023-01-19T23:01:33.301Z,68.84
2023-01-19T23:04:02.057Z,68.73
2023-01-19T23:06:31.051Z,69.26
2023-01-19T23:09:01.273Z,69.87
2023-01-19T23:11:31.066Z,70.12
2023-01-19T23:13:58.917Z,69.80
2023-01-19T23:16:27.007Z,69.78
2023-01-19T23:18:55.688Z,70.32
2023-01-19T23:21:25.177Z,69.74
2023-01-19T23:23:54.567Z,70.57
2023-01-19T23:26:24.520Z,71.05
2023-01-19T23:28:55.792Z,70.93
2023-01-19T23:31:26.133Z,71.18
2023-01-19T23:33:55.238Z,71.44
2023-01-19T23:36:24.739Z,71.53
2023-01-19T23:38:54.259Z,70.87
2023-01-19T23:41:24.234Z,70.50
2023-01-19T23:43:51.807Z,70.84
2023-01-19T23:46:20.499Z,70.82
2023-01-19T23:48:48.551Z,70.59
2023-01-19T23:51:18.259Z,70.30
2023-01-19T23:53:46.369Z,70.71
2023-01-19T23:56:17.360Z,70.48
2023-01-19T23:58:47.531Z,70.03
